createdAt,value
2023-07-18T00:00:43.750Z,994.00
2023-07-18T00:01:43.752Z,993.99
2023-07-18T00:02:43.757Z,993.99
2023-07-18T00:03:43.735Z,993.97
2023-07-18T00:04:43.711Z,994.01
2023-07-18T00:05:43.719Z,994.00
2023-07-18T00:06:43.673Z,993.99
2023-07-18T00:07:43.674Z,993.97
2023-07-18T00:08:43.644Z,993.96
2023-07-18T00:09:43.654Z,994.03
2023-07-18T00:10:43.776Z,994.09
2023-07-18T00:11:43.658Z,994.06
2023-07-18T00:12:43.634Z,994.05
2023-07-18T00:13:43.615Z,994.06
2023-07-18T00:14:43.615Z,994.05
2023-07-18T00:15:43.607Z,994.03
2023-07-18T00:16:43.618Z,994.09
2023-07-18T00:17:43.626Z,994.06
2023-07-18T00:18:43.543Z,994.07
2023-07-18T00:19:43.568Z,994.02
2023-07-18T00:20:43.557Z,994.09
2023-07-18T00:21:43.515Z,994.02
2023-07-18T00:22:43.611Z,994.06
2023-07-18T00:23:43.526Z,994.00
2023-07-18T00:24:43.511Z,994.06
2023-07-18T00:25:43.514Z,994.04
2023-07-18T00:26:43.469Z,994.07
2023-07-18T00:27:43.466Z,994.07
2023-07-18T00:28:43.482Z,994.04
2023-07-18T00:29:43.463Z,994.06
2023-07-18T00:30:43.475Z,994.01
2023-07-18T00:31:43.475Z,994.02
2023-07-18T00:32:43.550Z,994.01
2023-07-18T00:33:43.411Z,994.02
2023-07-18T00:34:43.395Z,994.00
2023-07-18T00:35:43.399Z,994.06
2023-07-18T00:36:43.361Z,994.07
2023-07-18T00:37:43.390Z,994.03
2023-07-18T00:38:43.367Z,994.06
2023-07-18T00:39:43.332Z,994.08
2023-07-18T00:40:43.333Z,994.03
2023-07-18T00:41:43.319Z,994.07
2023-07-18T00:42:43.303Z,994.08
2023-07-18T00:43:43.301Z,994.05
2023-07-18T00:44:43.281Z,994.06
2023-07-18T00:45:43.324Z,994.07
2023-07-18T00:46:43.295Z,994.06
2023-07-18T00:47:43.289Z,994.09
2023-07-18T00:48:43.261Z,994.10
2023-07-18T00:49:43.236Z,994.07
2023-07-18T00:50:43.243Z,994.05
2023-07-18T00:51:43.226Z,994.04
2023-07-18T00:52:43.211Z,994.05
2023-07-18T00:53:43.205Z,994.01
2023-07-18T00:54:43.174Z,994.05
2023-07-18T00:55:43.176Z,994.00
2023-07-18T00:56:43.164Z,993.96
2023-07-18T00:57:43.178Z,993.98
2023-07-18T00:58:43.204Z,993.98
2023-07-18T00:59:43.161Z,993.97
2023-07-18T01:00:43.138Z,993.95
2023-07-18T01:01:43.138Z,993.92
2023-07-18T01:02:43.277Z,993.94
2023-07-18T01:03:43.117Z,993.95
2023-07-18T01:04:43.088Z,993.92
2023-07-18T01:05:43.094Z,993.89
2023-07-18T01:06:43.095Z,993.95
2023-07-18T01:07:43.037Z,993.93
2023-07-18T01:08:43.973Z,993.86
2023-07-18T01:09:43.034Z,993.89
2023-07-18T01:10:43.032Z,993.84
2023-07-18T01:11:43.121Z,993.89
2023-07-18T01:12:43.010Z,993.87
2023-07-18T01:13:42.985Z,993.89
2023-07-18T01:14:42.973Z,993.87
2023-07-18T01:15:43.012Z,993.89
2023-07-18T01:16:42.984Z,993.84
2023-07-18T01:17:42.958Z,993.87
2023-07-18T01:18:42.959Z,993.86
2023-07-18T01:19:42.951Z,993.85
2023-07-18T01:20:42.917Z,993.87
2023-07-18T01:21:42.921Z,993.84
2023-07-18T01:22:42.916Z,993.85
2023-07-18T01:23:42.894Z,993.80
2023-07-18T01:24:42.878Z,993.84
2023-07-18T01:25:42.858Z,993.76
2023-07-18T01:26:42.857Z,993.76
2023-07-18T01:27:42.854Z,993.78
2023-07-18T01:28:42.852Z,993.73
2023-07-18T01:29:42.837Z,993.75
2023-07-18T01:30:42.819Z,993.69
2023-07-18T01:31:42.848Z,993.71
2023-07-18T01:32:42.891Z,993.71
2023-07-18T01:33:42.790Z,993.70
2023-07-18T01:34:42.759Z,993.73
2023-07-18T01:35:42.762Z,993.72
2023-07-18T01:36:42.768Z,993.68
2023-07-18T01:37:42.726Z,993.72
2023-07-18T01:38:42.735Z,993.71
2023-07-18T01:39:43.506Z,993.74
2023-07-18T01:40:42.691Z,993.71
2023-07-18T01:41:42.708Z,993.67
2023-07-18T01:42:42.707Z,993.67
2023-07-18T01:43:42.719Z,993.70
2023-07-18T01:44:42.719Z,993.71
2023-07-18T01:45:42.662Z,993.69
2023-07-18T01:46:42.692Z,993.71
2023-07-18T01:47:42.672Z,993.69
2023-07-18T01:48:42.639Z,993.71
2023-07-18T01:49:42.602Z,993.74
2023-07-18T01:50:42.593Z,993.72
2023-07-18T01:51:42.600Z,993.68
2023-07-18T01:52:42.596Z,993.70
2023-07-18T01:53:42.573Z,993.72
2023-07-18T01:54:42.575Z,993.70
2023-07-18T01:55:42.538Z,993.70
2023-07-18T01:56:42.537Z,993.73
2023-07-18T01:57:42.531Z,993.68
2023-07-18T01:58:42.539Z,993.73
2023-07-18T01:59:42.514Z,993.75
2023-07-18T02:00:42.532Z,993.70
2023-07-18T02:01:42.474Z,993.71
2023-07-18T02:02:42.672Z,993.72
2023-07-18T02:03:42.475Z,993.75
2023-07-18T02:04:42.446Z,993.76
2023-07-18T02:05:42.447Z,993.76
2023-07-18T02:06:42.450Z,993.75
2023-07-18T02:07:42.411Z,993.75
2023-07-18T02:08:42.412Z,993.75
2023-07-18T02:09:42.411Z,993.72
2023-07-18T02:10:42.421Z,993.74
2023-07-18T02:11:42.381Z,993.68
2023-07-18T02:12:42.377Z,993.74
2023-07-18T02:13:42.361Z,993.67
2023-07-18T02:14:42.347Z,993.67
2023-07-18T02:15:42.343Z,993.63
2023-07-18T02:16:42.400Z,993.61
2023-07-18T02:17:42.390Z,993.62
2023-07-18T02:18:42.325Z,993.64
2023-07-18T02:19:42.288Z,993.69
2023-07-18T02:20:42.291Z,993.61
2023-07-18T02:21:42.307Z,993.64
2023-07-18T02:22:42.415Z,993.63
2023-07-18T02:23:42.276Z,993.58
2023-07-18T02:24:42.262Z,993.54
2023-07-18T02:25:42.246Z,993.56
2023-07-18T02:26:42.226Z,993.54
2023-07-18T02:27:42.316Z,993.54
2023-07-18T02:28:42.227Z,993.56
2023-07-18T02:29:42.215Z,993.55
2023-07-18T02:30:42.251Z,993.54
2023-07-18T02:31:42.182Z,993.55
2023-07-18T02:32:42.210Z,993.52
2023-07-18T02:33:42.185Z,993.52
2023-07-18T02:34:42.162Z,993.55
2023-07-18T02:35:42.137Z,993.55
2023-07-18T02:36:42.133Z,993.58
2023-07-18T02:37:42.163Z,993.59
2023-07-18T02:38:42.112Z,993.60
2023-07-18T02:39:42.098Z,993.59
2023-07-18T02:40:42.093Z,993.61
2023-07-18T02:41:42.065Z,993.63
2023-07-18T02:42:42.075Z,993.62
2023-07-18T02:43:42.084Z,993.62
2023-07-18T02:44:42.033Z,993.64
2023-07-18T02:45:42.039Z,993.62
2023-07-18T02:46:42.088Z,993.61
2023-07-18T02:47:42.091Z,993.61
2023-07-18T02:48:43.011Z,993.58
2023-07-18T02:49:41.990Z,993.62
2023-07-18T02:50:42.015Z,993.61
2023-07-18T02:51:41.968Z,993.61
2023-07-18T02:52:41.971Z,993.67
2023-07-18T02:53:41.986Z,993.63
2023-07-18T02:54:41.959Z,993.67
2023-07-18T02:55:41.924Z,993.68
2023-07-18T02:56:41.975Z,993.63
2023-07-18T02:57:41.907Z,993.64
2023-07-18T02:58:41.904Z,993.64
2023-07-18T02:59:41.896Z,993.66
2023-07-18T03:00:41.884Z,993.64
2023-07-18T03:01:41.920Z,993.65
2023-07-18T03:02:41.880Z,993.63
2023-07-18T03:03:41.876Z,993.60
2023-07-18T03:04:41.847Z,993.59
2023-07-18T03:05:41.850Z,993.60
2023-07-18T03:06:41.812Z,993.58
2023-07-18T03:07:41.799Z,993.58
2023-07-18T03:08:41.793Z,993.57
2023-07-18T03:09:41.773Z,993.59
2023-07-18T03:10:41.780Z,993.55
2023-07-18T03:11:41.768Z,993.56
2023-07-18T03:12:41.760Z,993.57
2023-07-18T03:13:41.733Z,993.59
2023-07-18T03:14:41.792Z,993.60
2023-07-18T03:15:41.739Z,993.58
2023-07-18T03:16:41.673Z,993.56
2023-07-18T03:17:41.755Z,993.55
2023-07-18T03:18:42.503Z,993.54
2023-07-18T03:19:41.673Z,993.52
2023-07-18T03:20:41.697Z,993.53
2023-07-18T03:21:41.651Z,993.55
2023-07-18T03:22:41.659Z,993.54
2023-07-18T03:23:41.589Z,993.56
2023-07-18T03:24:41.559Z,993.57
2023-07-18T03:25:41.604Z,993.57
2023-07-18T03:26:41.571Z,993.58
2023-07-18T03:27:41.537Z,993.62
2023-07-18T03:28:41.603Z,993.65
2023-07-18T03:29:41.584Z,993.60
2023-07-18T03:30:41.557Z,993.56
2023-07-18T03:31:41.590Z,993.56
2023-07-18T03:32:41.590Z,993.54
2023-07-18T03:33:41.527Z,993.54
2023-07-18T03:34:41.518Z,993.55
2023-07-18T03:35:41.483Z,993.56
2023-07-18T03:36:41.438Z,993.56
2023-07-18T03:37:41.498Z,993.58
2023-07-18T03:38:41.452Z,993.60
2023-07-18T03:39:41.415Z,993.59
2023-07-18T03:40:41.452Z,993.55
2023-07-18T03:41:41.463Z,993.55
2023-07-18T03:42:41.467Z,993.56
2023-07-18T03:43:41.437Z,993.55
2023-07-18T03:44:41.444Z,993.52
2023-07-18T03:45:41.385Z,993.53
2023-07-18T03:46:41.392Z,993.51
2023-07-18T03:47:41.461Z,993.50
2023-07-18T03:48:41.360Z,993.56
2023-07-18T03:49:41.315Z,993.53
2023-07-18T03:50:43.647Z,993.47
2023-07-18T03:51:41.290Z,993.42
2023-07-18T03:52:41.287Z,993.45
2023-07-18T03:53:41.293Z,993.46
2023-07-18T03:54:41.282Z,993.47
2023-07-18T03:55:41.248Z,993.47
2023-07-18T03:56:41.235Z,993.48
2023-07-18T03:57:41.237Z,993.47
2023-07-18T03:58:41.228Z,993.50
2023-07-18T03:59:41.212Z,993.48
2023-07-18T04:00:41.213Z,993.48
2023-07-18T04:01:41.221Z,993.48
2023-07-18T04:02:42.581Z,993.50
2023-07-18T04:03:41.184Z,993.46
2023-07-18T04:04:41.161Z,993.47
2023-07-18T04:05:41.169Z,993.47
2023-07-18T04:06:41.127Z,993.51
2023-07-18T04:07:41.118Z,993.49
2023-07-18T04:08:42.693Z,993.51
2023-07-18T04:09:41.116Z,993.52
2023-07-18T04:10:41.111Z,993.53
2023-07-18T04:11:41.104Z,993.52
2023-07-18T04:12:41.074Z,993.49
2023-07-18T04:13:41.054Z,993.49
2023-07-18T04:14:41.072Z,993.50
2023-07-18T04:15:41.055Z,993.49
2023-07-18T04:16:41.065Z,993.49
2023-07-18T04:17:41.090Z,993.48
2023-07-18T04:18:40.998Z,993.53
2023-07-18T04:19:41.002Z,993.49
2023-07-18T04:20:40.999Z,993.52
2023-07-18T04:21:40.963Z,993.53
2023-07-18T04:22:41.015Z,993.54
2023-07-18T04:23:40.982Z,993.49
2023-07-18T04:24:40.947Z,993.55
2023-07-18T04:25:40.928Z,993.60
2023-07-18T04:26:40.917Z,993.55
2023-07-18T04:27:40.937Z,993.55
2023-07-18T04:28:40.915Z,993.50
2023-07-18T04:29:40.905Z,993.53
2023-07-18T04:30:40.896Z,993.53
2023-07-18T04:31:40.911Z,993.54
2023-07-18T04:32:40.901Z,993.55
2023-07-18T04:33:40.889Z,993.56
2023-07-18T04:34:40.843Z,993.56
2023-07-18T04:35:40.849Z,993.55
2023-07-18T04:36:40.854Z,993.51
2023-07-18T04:37:40.827Z,993.52
2023-07-18T04:38:40.806Z,993.47
2023-07-18T04:39:40.813Z,993.42
2023-07-18T04:40:40.779Z,993.42
2023-07-18T04:41:53.733Z,993.35
2023-07-18T04:42:40.771Z,993.41
2023-07-18T04:43:40.766Z,993.42
2023-07-18T04:44:40.750Z,993.42
2023-07-18T04:45:40.766Z,993.36
2023-07-18T04:46:40.857Z,993.33
2023-07-18T04:47:40.799Z,993.29
2023-07-18T04:48:40.726Z,993.33
2023-07-18T04:49:40.706Z,993.31
2023-07-18T04:50:40.684Z,993.36
2023-07-18T04:51:40.670Z,993.32
2023-07-18T04:52:40.654Z,993.33
2023-07-18T04:53:40.659Z,993.33
2023-07-18T04:54:40.674Z,993.31
2023-07-18T04:55:40.613Z,993.32
2023-07-18T04:56:40.614Z,993.30
2023-07-18T04:57:40.628Z,993.29
2023-07-18T04:58:40.589Z,993.27
2023-07-18T04:59:40.631Z,993.32
2023-07-18T05:00:40.583Z,993.29
2023-07-18T05:01:40.580Z,993.31
2023-07-18T05:02:40.591Z,993.35
2023-07-18T05:03:55.852Z,993.33
2023-07-18T05:04:40.567Z,993.36
2023-07-18T05:05:40.530Z,993.30
2023-07-18T05:06:40.550Z,993.31
2023-07-18T05:07:40.502Z,993.30
2023-07-18T05:08:40.485Z,993.28
2023-07-18T05:09:40.512Z,993.26
2023-07-18T05:10:40.508Z,993.32
2023-07-18T05:11:40.500Z,993.24
2023-07-18T05:12:40.468Z,993.22
2023-07-18T05:13:40.460Z,993.29
2023-07-18T05:14:40.426Z,993.26
2023-07-18T05:15:40.459Z,993.21
2023-07-18T05:16:40.401Z,993.25
2023-07-18T05:17:40.437Z,993.22
2023-07-18T05:18:40.413Z,993.25
2023-07-18T05:19:40.375Z,993.23
2023-07-18T05:20:40.375Z,993.22
2023-07-18T05:21:40.354Z,993.22
2023-07-18T05:22:40.425Z,993.27
2023-07-18T05:23:40.337Z,993.25
2023-07-18T05:24:40.390Z,993.20
2023-07-18T05:25:40.965Z,993.18
2023-07-18T05:26:40.293Z,993.20
2023-07-18T05:27:40.309Z,993.19
2023-07-18T05:28:40.369Z,993.22
2023-07-18T05:29:40.275Z,993.21
2023-07-18T05:30:40.284Z,993.21
2023-07-18T05:31:40.270Z,993.22
2023-07-18T05:32:40.264Z,993.19
2023-07-18T05:33:40.227Z,993.19
2023-07-18T05:34:40.232Z,993.18
2023-07-18T05:35:40.239Z,993.13
2023-07-18T05:36:40.223Z,993.13
2023-07-18T05:37:40.222Z,993.12
2023-07-18T05:38:40.176Z,993.17
2023-07-18T05:39:40.173Z,993.15
2023-07-18T05:40:40.185Z,993.15
2023-07-18T05:41:40.148Z,993.16
2023-07-18T05:42:40.152Z,993.16
2023-07-18T05:43:40.143Z,993.10
2023-07-18T05:44:40.129Z,993.13
2023-07-18T05:45:40.187Z,993.13
2023-07-18T05:46:41.295Z,993.09
2023-07-18T05:47:40.169Z,993.11
2023-07-18T05:48:41.022Z,993.10
2023-07-18T05:49:40.059Z,993.06
2023-07-18T05:50:40.145Z,993.02
2023-07-18T05:51:40.083Z,992.98
2023-07-18T05:52:41.034Z,992.98
2023-07-18T05:53:41.656Z,992.97
2023-07-18T05:54:41.076Z,993.01
2023-07-18T05:55:40.068Z,992.99
2023-07-18T05:56:40.001Z,992.98
2023-07-18T05:57:39.989Z,992.92
2023-07-18T05:58:40.006Z,992.95
2023-07-18T05:59:39.991Z,992.94
2023-07-18T06:00:39.998Z,992.90
2023-07-18T06:01:39.989Z,992.92
2023-07-18T06:02:39.968Z,992.92
2023-07-18T06:03:40.023Z,992.91
2023-07-18T06:04:40.544Z,992.89
2023-07-18T06:05:39.921Z,992.86
2023-07-18T06:06:39.901Z,992.85
2023-07-18T06:07:39.903Z,992.85
2023-07-18T06:08:40.545Z,992.84
2023-07-18T06:09:39.891Z,992.85
2023-07-18T06:10:39.899Z,992.80
2023-07-18T06:11:39.859Z,992.76
2023-07-18T06:12:39.866Z,992.78
2023-07-18T06:13:39.819Z,992.76
2023-07-18T06:14:39.810Z,992.71
2023-07-18T06:15:40.531Z,992.77
2023-07-18T06:16:39.824Z,992.75
2023-07-18T06:17:39.926Z,992.70
2023-07-18T06:18:39.833Z,992.67
2023-07-18T06:19:39.780Z,992.69
2023-07-18T06:20:40.559Z,992.69
2023-07-18T06:21:40.558Z,992.69
2023-07-18T06:22:39.800Z,992.72
2023-07-18T06:23:39.740Z,992.71
2023-07-18T06:24:39.766Z,992.71
2023-07-18T06:25:40.535Z,992.69
2023-07-18T06:26:39.726Z,992.68
2023-07-18T06:27:39.706Z,992.67
2023-07-18T06:28:39.711Z,992.65
2023-07-18T06:29:39.721Z,992.65
2023-07-18T06:30:39.682Z,992.68
2023-07-18T06:31:39.709Z,992.68
2023-07-18T06:32:39.621Z,992.63
2023-07-18T06:33:39.624Z,992.60
2023-07-18T06:34:39.621Z,992.62
2023-07-18T06:35:39.642Z,992.56
2023-07-18T06:36:39.696Z,992.60
2023-07-18T06:37:39.567Z,992.59
2023-07-18T06:38:39.596Z,992.55
2023-07-18T06:39:39.610Z,992.55
2023-07-18T06:40:39.544Z,992.54
2023-07-18T06:41:39.562Z,992.57
2023-07-18T06:42:39.517Z,992.61
2023-07-18T06:43:39.612Z,992.59
2023-07-18T06:44:39.510Z,992.58
2023-07-18T06:45:39.507Z,992.58
2023-07-18T06:46:41.135Z,992.50
2023-07-18T06:47:39.582Z,992.53
2023-07-18T06:48:39.555Z,992.52
2023-07-18T06:49:40.033Z,992.52
2023-07-18T06:50:39.463Z,992.50
2023-07-18T06:51:39.424Z,992.49
2023-07-18T06:52:39.444Z,992.52
2023-07-18T06:53:39.429Z,992.48
2023-07-18T06:54:39.426Z,992.46
2023-07-18T06:55:39.478Z,992.46
2023-07-18T06:56:40.047Z,992.49
2023-07-18T06:57:41.169Z,992.51
2023-07-18T06:58:39.413Z,992.48
2023-07-18T06:59:39.383Z,992.54
2023-07-18T07:00:39.381Z,992.49
2023-07-18T07:01:39.447Z,992.47
2023-07-18T07:02:39.375Z,992.48
2023-07-18T07:03:39.370Z,992.48
2023-07-18T07:04:39.291Z,992.51
2023-07-18T07:05:39.321Z,992.53
2023-07-18T07:06:39.360Z,992.50
2023-07-18T07:07:39.292Z,992.48
2023-07-18T07:08:39.285Z,992.47
2023-07-18T07:09:40.100Z,992.49
2023-07-18T07:10:39.319Z,992.43
2023-07-18T07:11:39.259Z,992.40
2023-07-18T07:12:39.291Z,992.41
2023-07-18T07:13:39.228Z,992.36
2023-07-18T07:14:39.208Z,992.30
2023-07-18T07:15:39.206Z,992.34
2023-07-18T07:16:39.259Z,992.32
2023-07-18T07:17:40.204Z,992.28
2023-07-18T07:18:39.166Z,992.33
2023-07-18T07:19:39.226Z,992.27
2023-07-18T07:20:39.145Z,992.27
2023-07-18T07:21:39.137Z,992.24
2023-07-18T07:22:39.144Z,992.24
2023-07-18T07:23:39.103Z,992.26
2023-07-18T07:24:39.111Z,992.23
2023-07-18T07:25:39.112Z,992.22
2023-07-18T07:26:39.216Z,992.19
2023-07-18T07:27:39.053Z,992.21
2023-07-18T07:28:39.055Z,992.18
2023-07-18T07:29:40.047Z,992.16
2023-07-18T07:30:40.110Z,992.17
2023-07-18T07:31:39.179Z,992.16
2023-07-18T07:32:39.086Z,992.11
2023-07-18T07:33:39.545Z,992.09
2023-07-18T07:34:42.215Z,992.10
2023-07-18T07:35:39.547Z,992.08
2023-07-18T07:36:41.075Z,992.08
2023-07-18T07:37:39.541Z,992.05
2023-07-18T07:38:39.070Z,992.06
2023-07-18T07:39:39.610Z,992.07
2023-07-18T07:40:38.945Z,992.05
2023-07-18T07:41:39.046Z,992.08
2023-07-18T07:42:39.237Z,992.08
2023-07-18T07:43:40.149Z,992.04
2023-07-18T07:44:38.922Z,992.03
2023-07-18T07:45:38.923Z,991.99
2023-07-18T07:46:38.879Z,992.05
2023-07-18T07:47:38.957Z,992.01
2023-07-18T07:48:38.853Z,992.01
2023-07-18T07:49:38.855Z,992.02
2023-07-18T07:50:38.884Z,992.01
2023-07-18T07:51:38.890Z,992.02
2023-07-18T07:52:38.794Z,991.93
2023-07-18T07:53:39.574Z,991.86
2023-07-18T07:54:39.580Z,991.88
2023-07-18T07:55:40.540Z,991.85
2023-07-18T07:56:38.803Z,991.86
2023-07-18T07:57:38.748Z,991.84
2023-07-18T07:58:38.754Z,991.82
2023-07-18T07:59:38.730Z,991.85
2023-07-18T08:00:39.569Z,991.81
2023-07-18T08:01:38.768Z,991.78
2023-07-18T08:02:38.795Z,991.78
2023-07-18T08:03:38.775Z,991.76
2023-07-18T08:04:39.898Z,991.73
2023-07-18T08:05:38.685Z,991.68
2023-07-18T08:06:39.561Z,991.64
2023-07-18T08:07:38.680Z,991.64
2023-07-18T08:08:38.713Z,991.62
2023-07-18T08:09:40.079Z,991.61
2023-07-18T08:10:38.700Z,991.59
2023-07-18T08:11:38.655Z,991.60
2023-07-18T08:12:38.675Z,991.58
2023-07-18T08:13:39.574Z,991.55
2023-07-18T08:14:40.599Z,991.53
2023-07-18T08:15:38.644Z,991.53
2023-07-18T08:16:38.622Z,991.49
2023-07-18T08:17:38.693Z,991.48
2023-07-18T08:18:38.645Z,991.55
2023-07-18T08:19:38.578Z,991.53
2023-07-18T08:20:39.069Z,991.51
2023-07-18T08:21:38.577Z,991.52
2023-07-18T08:22:38.593Z,991.50
2023-07-18T08:23:38.551Z,991.51
2023-07-18T08:24:39.090Z,991.55
2023-07-18T08:25:39.053Z,991.45
2023-07-18T08:26:39.064Z,991.46
2023-07-18T08:27:38.512Z,991.45
2023-07-18T08:28:38.474Z,991.47
2023-07-18T08:29:39.058Z,991.45
2023-07-18T08:30:38.461Z,991.44
2023-07-18T08:31:38.443Z,991.42
2023-07-18T08:32:38.495Z,991.44
2023-07-18T08:33:38.440Z,991.40
2023-07-18T08:34:38.387Z,991.39
2023-07-18T08:35:38.362Z,991.37
2023-07-18T08:36:38.383Z,991.36
2023-07-18T08:37:38.347Z,991.31
2023-07-18T08:38:38.340Z,991.30
2023-07-18T08:39:39.083Z,991.24
2023-07-18T08:40:38.314Z,991.29
2023-07-18T08:41:38.360Z,991.27
2023-07-18T08:42:39.063Z,991.26
2023-07-18T08:43:38.294Z,991.24
2023-07-18T08:44:38.291Z,991.23
2023-07-18T08:45:38.270Z,991.23
2023-07-18T08:46:38.315Z,991.20
2023-07-18T08:47:38.367Z,991.18
2023-07-18T08:48:39.056Z,991.20
2023-07-18T08:49:38.253Z,991.23
2023-07-18T08:50:38.254Z,991.16
2023-07-18T08:51:38.209Z,991.13
2023-07-18T08:52:38.374Z,991.12
2023-07-18T08:53:39.572Z,991.13
2023-07-18T08:54:38.263Z,991.09
2023-07-18T08:55:38.298Z,991.11
2023-07-18T08:56:38.178Z,991.10
2023-07-18T08:57:39.105Z,991.12
2023-07-18T08:58:38.209Z,991.10
2023-07-18T08:59:39.111Z,991.15
2023-07-18T09:00:38.205Z,991.16
2023-07-18T09:01:39.214Z,991.15
2023-07-18T09:02:38.197Z,991.17
2023-07-18T09:03:39.083Z,991.14
2023-07-18T09:04:38.151Z,991.10
2023-07-18T09:05:38.124Z,991.08
2023-07-18T09:06:38.604Z,991.08
2023-07-18T09:07:38.109Z,991.01
2023-07-18T09:08:39.077Z,990.98
2023-07-18T09:09:39.100Z,990.96
2023-07-18T09:10:38.014Z,990.98
2023-07-18T09:11:38.037Z,990.94
2023-07-18T09:12:37.981Z,990.94
2023-07-18T09:13:38.041Z,990.90
2023-07-18T09:14:37.993Z,990.92
2023-07-18T09:15:37.983Z,990.89
2023-07-18T09:16:38.023Z,990.88
2023-07-18T09:17:37.993Z,990.88
2023-07-18T09:18:37.968Z,990.91
2023-07-18T09:19:37.930Z,990.88
2023-07-18T09:20:37.954Z,990.90
2023-07-18T09:21:38.591Z,990.88
2023-07-18T09:22:37.960Z,990.88
2023-07-18T09:23:37.913Z,990.88
2023-07-18T09:24:38.602Z,990.86
2023-07-18T09:25:38.577Z,990.83
2023-07-18T09:26:38.572Z,990.85
2023-07-18T09:27:37.876Z,990.83
2023-07-18T09:28:37.904Z,990.83
2023-07-18T09:29:38.573Z,990.81
2023-07-18T09:30:37.879Z,990.78
2023-07-18T09:31:37.816Z,990.78
2023-07-18T09:32:37.825Z,990.76
2023-07-18T09:33:37.796Z,990.78
2023-07-18T09:34:37.828Z,990.70
2023-07-18T09:35:37.786Z,990.71
2023-07-18T09:36:37.836Z,990.75
2023-07-18T09:37:37.793Z,990.79
2023-07-18T09:38:37.720Z,990.76
2023-07-18T09:39:37.756Z,990.81
2023-07-18T09:40:39.578Z,990.82
2023-07-18T09:41:37.748Z,990.81
2023-07-18T09:43:37.676Z,990.74
2023-07-18T09:44:37.751Z,990.76
2023-07-18T09:45:37.673Z,990.75
2023-07-18T09:46:37.755Z,990.76
2023-07-18T09:47:37.726Z,990.75
2023-07-18T09:49:40.992Z,990.74
2023-07-18T09:50:37.620Z,990.72
2023-07-18T09:51:37.629Z,990.75
2023-07-18T09:52:37.600Z,990.75
2023-07-18T09:53:37.586Z,990.74
2023-07-18T09:54:37.592Z,990.72
2023-07-18T09:55:37.562Z,990.73
2023-07-18T09:56:37.632Z,990.73
2023-07-18T09:57:37.648Z,990.76
2023-07-18T09:58:37.546Z,990.78
2023-07-18T09:59:37.568Z,990.81
2023-07-18T10:00:37.563Z,990.84
2023-07-18T10:01:37.559Z,990.87
2023-07-18T10:02:37.519Z,990.93
2023-07-18T10:03:38.269Z,990.97
2023-07-18T10:04:37.497Z,990.96
2023-07-18T10:05:37.492Z,991.01
2023-07-18T10:06:37.451Z,991.08
2023-07-18T10:07:37.509Z,991.09
2023-07-18T10:08:37.545Z,991.18
2023-07-18T10:09:38.396Z,991.23
2023-07-18T10:10:37.426Z,991.30
2023-07-18T10:11:37.420Z,991.36
2023-07-18T10:12:37.459Z,991.45
2023-07-18T10:13:37.493Z,991.54
2023-07-18T10:14:37.392Z,991.49
2023-07-18T10:15:37.475Z,991.58
2023-07-18T10:16:37.414Z,991.59
2023-07-18T10:17:37.673Z,991.50
2023-07-18T10:18:37.370Z,991.47
2023-07-18T10:19:37.329Z,991.41
2023-07-18T10:20:38.428Z,991.37
2023-07-18T10:21:37.362Z,991.28
2023-07-18T10:22:37.412Z,991.23
2023-07-18T10:23:37.258Z,991.23
2023-07-18T10:24:37.328Z,991.24
2023-07-18T10:25:37.270Z,991.18
2023-07-18T10:26:38.095Z,991.09
2023-07-18T10:27:37.234Z,990.97
2023-07-18T10:28:38.182Z,990.86
2023-07-18T10:29:37.222Z,990.78
2023-07-18T10:30:38.120Z,990.64
2023-07-18T10:31:38.136Z,990.49
2023-07-18T10:32:37.267Z,990.37
2023-07-18T10:33:38.081Z,990.33
2023-07-18T10:34:37.165Z,990.33
2023-07-18T10:35:39.148Z,990.33
2023-07-18T10:36:37.232Z,990.20
2023-07-18T10:37:37.243Z,990.07
2023-07-18T10:38:37.218Z,989.84
2023-07-18T10:39:37.196Z,989.58
2023-07-18T10:40:37.640Z,989.20
2023-07-18T10:41:37.115Z,988.85
2023-07-18T10:42:37.135Z,988.51
2023-07-18T10:43:37.590Z,988.11
2023-07-18T10:44:37.122Z,987.56
2023-07-18T10:45:41.150Z,987.13
2023-07-18T10:46:37.105Z,986.77
2023-07-18T10:47:37.656Z,986.54
2023-07-18T10:48:38.125Z,986.58
2023-07-18T10:49:37.581Z,987.02
2023-07-18T10:50:37.089Z,987.68
2023-07-18T10:51:37.611Z,988.43
2023-07-18T10:52:36.998Z,988.89
2023-07-18T10:53:37.632Z,989.20
2023-07-18T10:54:37.044Z,989.33
2023-07-18T10:55:36.986Z,989.40
2023-07-18T10:56:37.015Z,989.47
2023-07-18T10:57:36.963Z,989.47
2023-07-18T10:58:36.933Z,989.46
2023-07-18T10:59:36.919Z,989.49
2023-07-18T11:00:36.986Z,989.57
2023-07-18T11:01:36.977Z,989.60
2023-07-18T11:02:36.993Z,989.65
2023-07-18T11:03:37.621Z,989.73
2023-07-18T11:04:36.836Z,989.87
2023-07-18T11:05:36.850Z,989.95
2023-07-18T11:06:36.866Z,990.08
2023-07-18T11:07:36.860Z,990.17
2023-07-18T11:08:36.834Z,990.24
2023-07-18T11:09:36.779Z,990.29
2023-07-18T11:10:36.776Z,990.32
2023-07-18T11:11:36.785Z,990.33
2023-07-18T11:12:36.798Z,990.40
2023-07-18T11:13:36.783Z,990.52
2023-07-18T11:14:36.765Z,990.65
2023-07-18T11:15:36.748Z,990.85
2023-07-18T11:16:36.783Z,990.93
2023-07-18T11:17:36.792Z,991.00
2023-07-18T11:18:36.715Z,991.08
2023-07-18T11:19:36.723Z,991.02
2023-07-18T11:20:36.741Z,991.02
2023-07-18T11:21:36.712Z,991.04
2023-07-18T11:22:36.683Z,991.03
2023-07-18T11:23:36.663Z,991.09
2023-07-18T11:24:38.107Z,991.10
2023-07-18T11:25:36.697Z,991.13
2023-07-18T11:26:36.689Z,991.17
2023-07-18T11:27:37.610Z,991.19
2023-07-18T11:28:36.585Z,991.21
2023-07-18T11:29:36.590Z,991.16
2023-07-18T11:30:36.676Z,991.08
2023-07-18T11:31:41.451Z,990.99
2023-07-18T11:32:36.578Z,990.98
2023-07-18T11:33:36.536Z,991.04
2023-07-18T11:34:36.541Z,991.13
2023-07-18T11:35:36.544Z,991.19
2023-07-18T11:36:36.533Z,991.20
2023-07-18T11:37:41.799Z,991.21
2023-07-18T11:38:36.537Z,991.17
2023-07-18T11:39:36.553Z,991.10
2023-07-18T11:40:36.463Z,990.97
2023-07-18T11:41:36.489Z,990.85
2023-07-18T11:42:36.464Z,990.81
2023-07-18T11:43:36.538Z,990.81
2023-07-18T11:44:36.487Z,990.64
2023-07-18T11:45:36.505Z,990.57
2023-07-18T11:46:36.463Z,990.74
2023-07-18T11:47:36.457Z,990.86
2023-07-18T11:48:36.484Z,990.97
2023-07-18T11:49:36.742Z,990.99
2023-07-18T11:50:36.479Z,990.92
2023-07-18T11:51:37.152Z,990.70
2023-07-18T11:52:36.456Z,990.39
2023-07-18T11:53:36.431Z,990.29
2023-07-18T11:54:36.419Z,990.08
2023-07-18T11:55:37.126Z,990.06
2023-07-18T11:56:37.628Z,990.29
2023-07-18T11:57:36.316Z,990.45
2023-07-18T11:58:36.286Z,990.30
2023-07-18T11:59:36.278Z,990.09
2023-07-18T12:00:36.282Z,990.11
2023-07-18T12:01:38.707Z,990.12
2023-07-18T12:02:36.364Z,990.23
2023-07-18T12:03:36.311Z,990.30
2023-07-18T12:04:36.261Z,990.21
2023-07-18T12:05:37.092Z,990.09
2023-07-18T12:06:36.212Z,989.98
2023-07-18T12:07:36.217Z,989.81
2023-07-18T12:08:36.225Z,989.72
2023-07-18T12:09:36.193Z,989.66
2023-07-18T12:10:37.101Z,989.66
2023-07-18T12:11:36.173Z,989.61
2023-07-18T12:12:36.162Z,989.54
2023-07-18T12:13:36.124Z,989.40
2023-07-18T12:14:36.121Z,989.28
2023-07-18T12:15:38.237Z,989.19
2023-07-18T12:16:36.102Z,989.11
2023-07-18T12:17:36.114Z,989.07
2023-07-18T12:18:36.091Z,988.99
2023-07-18T12:19:36.068Z,988.84
2023-07-18T12:20:36.097Z,988.78
2023-07-18T12:21:36.105Z,988.74
2023-07-18T12:22:36.103Z,988.68
2023-07-18T12:23:36.083Z,988.62
2023-07-18T12:24:36.025Z,988.63
2023-07-18T12:25:36.046Z,988.61
2023-07-18T12:26:36.024Z,988.63
2023-07-18T12:27:36.016Z,988.61
2023-07-18T12:28:35.992Z,988.59
2023-07-18T12:29:35.991Z,988.53
2023-07-18T12:30:36.006Z,988.46